sensor_id;sensor_type;location;lat;lon;timestamp;pressure;altitude;pressure_sealevel;temperature;humidity
28008;BME280;15333;50.010;20.020;2023-11-18T00:00:09;98816.56;;;2.74;84.19
28008;BME280;15333;50.010;20.020;2023-11-18T00:03:34;98809.56;;;2.73;84.73
28008;BME280;15333;50.010;20.020;2023-11-18T00:06:36;98820.34;;;2.69;84.16
28008;BME280;15333;50.010;20.020;2023-11-18T00:09:36;98825.44;;;2.73;84.56
28008;BME280;15333;50.010;20.020;2023-11-18T00:12:37;98812.50;;;2.67;84.22
28008;BME280;15333;50.010;20.020;2023-11-18T00:15:42;98807.84;;;2.72;83.09
28008;BME280;15333;50.010;20.020;2023-11-18T00:18:43;98820.41;;;2.67;83.28
28008;BME280;15333;50.010;20.020;2023-11-18T00:21:44;98827.81;;;2.59;83.86
28008;BME280;15333;50.010;20.020;2023-11-18T00:24:45;98836.91;;;2.52;83.47
28008;BME280;15333;50.010;20.020;2023-11-18T00:27:45;98826.41;;;2.51;82.92
28008;BME280;15333;50.010;20.020;2023-11-18T00:30:46;98834.47;;;2.48;82.53
28008;BME280;15333;50.010;20.020;2023-11-18T00:33:47;98844.44;;;2.41;82.69
28008;BME280;15333;50.010;20.020;2023-11-18T00:36:48;98835.72;;;2.39;83.13
28008;BME280;15333;50.010;20.020;2023-11-18T00:39:49;98839.28;;;2.38;82.75
28008;BME280;15333;50.010;20.020;2023-11-18T00:42:50;98851.03;;;2.51;82.46
28008;BME280;15333;50.010;20.020;2023-11-18T00:45:50;98852.44;;;2.40;82.49
28008;BME280;15333;50.010;20.020;2023-11-18T00:48:52;98849.97;;;2.35;82.89
28008;BME280;15333;50.010;20.020;2023-11-18T00:51:52;98845.78;;;2.29;82.96
28008;BME280;15333;50.010;20.020;2023-11-18T00:54:53;98847.25;;;2.36;82.64
28008;BME280;15333;50.010;20.020;2023-11-18T00:57:54;98857.09;;;2.33;83.05
28008;BME280;15333;50.010;20.020;2023-11-18T01:00:55;98848.94;;;2.39;83.53
28008;BME280;15333;50.010;20.020;2023-11-18T01:03:56;98856.22;;;2.54;84.00
28008;BME280;15333;50.010;20.020;2023-11-18T01:07:00;98854.50;;;2.53;84.13
28008;BME280;15333;50.010;20.020;2023-11-18T01:10:00;98845.66;;;2.54;84.08
28008;BME280;15333;50.010;20.020;2023-11-18T01:13:01;98843.88;;;2.55;84.53
28008;BME280;15333;50.010;20.020;2023-11-18T01:16:02;98844.63;;;2.57;84.47
28008;BME280;15333;50.010;20.020;2023-11-18T01:19:05;98846.34;;;2.58;83.86
28008;BME280;15333;50.010;20.020;2023-11-18T01:22:09;98842.59;;;2.63;83.25
28008;BME280;15333;50.010;20.020;2023-11-18T01:25:13;98844.25;;;2.66;83.75
28008;BME280;15333;50.010;20.020;2023-11-18T01:28:14;98849.81;;;2.60;83.27
28008;BME280;15333;50.010;20.020;2023-11-18T01:31:16;98855.34;;;2.74;83.92
28008;BME280;15333;50.010;20.020;2023-11-18T01:34:18;98854.75;;;2.67;83.52
28008;BME280;15333;50.010;20.020;2023-11-18T01:37:22;98851.31;;;2.65;83.10
28008;BME280;15333;50.010;20.020;2023-11-18T01:40:24;98858.31;;;2.66;83.94
28008;BME280;15333;50.010;20.020;2023-11-18T01:43:25;98859.25;;;2.65;84.02
28008;BME280;15333;50.010;20.020;2023-11-18T01:46:26;98849.53;;;2.66;83.98
28008;BME280;15333;50.010;20.020;2023-11-18T01:49:27;98851.31;;;2.65;84.80
28008;BME280;15333;50.010;20.020;2023-11-18T01:52:28;98843.66;;;2.59;83.95
28008;BME280;15333;50.010;20.020;2023-11-18T01:55:31;98836.53;;;2.61;83.82
28008;BME280;15333;50.010;20.020;2023-11-18T01:58:35;98845.38;;;2.60;83.78
28008;BME280;15333;50.010;20.020;2023-11-18T02:01:37;98836.53;;;2.61;83.29
28008;BME280;15333;50.010;20.020;2023-11-18T02:04:40;98846.03;;;2.65;83.33
28008;BME280;15333;50.010;20.020;2023-11-18T02:07:41;98846.69;;;2.70;83.18
28008;BME280;15333;50.010;20.020;2023-11-18T02:10:49;98836.97;;;2.71;83.12
28008;BME280;15333;50.010;20.020;2023-11-18T02:13:58;98843.28;;;2.68;83.28
28008;BME280;15333;50.010;20.020;2023-11-18T02:17:05;98841.66;;;2.64;83.31
28008;BME280;15333;50.010;20.020;2023-11-18T02:20:07;98847.47;;;2.72;82.72
28008;BME280;15333;50.010;20.020;2023-11-18T02:23:16;98847.69;;;2.68;82.66
28008;BME280;15333;50.010;20.020;2023-11-18T02:26:27;98860.84;;;2.69;82.34
28008;BME280;15333;50.010;20.020;2023-11-18T02:29:34;98848.94;;;2.59;82.50
28008;BME280;15333;50.010;20.020;2023-11-18T02:35:59;98851.25;;;2.67;81.38
28008;BME280;15333;50.010;20.020;2023-11-18T02:39:12;98852.31;;;2.63;82.26
28008;BME280;15333;50.010;20.020;2023-11-18T02:42:18;98854.22;;;2.59;81.80
28008;BME280;15333;50.010;20.020;2023-11-18T02:45:19;98859.25;;;2.65;81.12
28008;BME280;15333;50.010;20.020;2023-11-18T02:48:21;98858.84;;;2.74;81.20
28008;BME280;15333;50.010;20.020;2023-11-18T02:51:22;98853.97;;;2.65;80.41
28008;BME280;15333;50.010;20.020;2023-11-18T02:54:23;98855.56;;;2.69;81.06
28008;BME280;15333;50.010;20.020;2023-11-18T02:57:24;98848.94;;;2.80;81.09
28008;BME280;15333;50.010;20.020;2023-11-18T03:00:25;98861.97;;;2.84;80.96
28008;BME280;15333;50.010;20.020;2023-11-18T03:03:26;98862.09;;;2.81;80.61
28008;BME280;15333;50.010;20.020;2023-11-18T03:06:29;98857.03;;;2.77;80.12
28008;BME280;15333;50.010;20.020;2023-11-18T03:09:29;98864.94;;;2.77;80.33
28008;BME280;15333;50.010;20.020;2023-11-18T03:12:30;98864.25;;;2.92;79.81
28008;BME280;15333;50.010;20.020;2023-11-18T03:15:32;98869.03;;;2.84;80.30
28008;BME280;15333;50.010;20.020;2023-11-18T03:18:32;98874.19;;;2.87;79.96
28008;BME280;15333;50.010;20.020;2023-11-18T03:21:33;98876.88;;;2.85;79.83
28008;BME280;15333;50.010;20.020;2023-11-18T03:24:34;98878.75;;;2.83;80.33
28008;BME280;15333;50.010;20.020;2023-11-18T03:27:35;98882.03;;;2.88;79.48
28008;BME280;15333;50.010;20.020;2023-11-18T03:30:35;98877.63;;;2.89;79.70
28008;BME280;15333;50.010;20.020;2023-11-18T03:33:38;98877.47;;;2.92;79.77
28008;BME280;15333;50.010;20.020;2023-11-18T03:36:40;98879.88;;;2.98;79.97
28008;BME280;15333;50.010;20.020;2023-11-18T03:39:41;98885.28;;;2.95;79.83
28008;BME280;15333;50.010;20.020;2023-11-18T03:42:41;98880.78;;;2.97;80.10
28008;BME280;15333;50.010;20.020;2023-11-18T03:45:42;98882.63;;;2.95;79.91
28008;BME280;15333;50.010;20.020;2023-11-18T03:48:46;98886.66;;;3.03;80.64
28008;BME280;15333;50.010;20.020;2023-11-18T03:51:47;98892.66;;;3.07;80.54
28008;BME280;15333;50.010;20.020;2023-11-18T03:54:49;98900.81;;;3.02;81.41
28008;BME280;15333;50.010;20.020;2023-11-18T03:57:50;98902.25;;;3.09;81.44
28008;BME280;15333;50.010;20.020;2023-11-18T04:00:51;98904.69;;;3.14;82.14
28008;BME280;15333;50.010;20.020;2023-11-18T04:03:53;98900.53;;;3.08;82.03
28008;BME280;15333;50.010;20.020;2023-11-18T04:06:55;98902.72;;;3.19;81.86
28008;BME280;15333;50.010;20.020;2023-11-18T04:09:56;98900.84;;;3.21;81.75
28008;BME280;15333;50.010;20.020;2023-11-18T04:12:57;98893.84;;;3.20;81.96
28008;BME280;15333;50.010;20.020;2023-11-18T04:15:58;98892.88;;;3.23;81.04
28008;BME280;15333;50.010;20.020;2023-11-18T04:18:58;98895.72;;;3.18;81.51
28008;BME280;15333;50.010;20.020;2023-11-18T04:21:59;98892.00;;;3.22;81.82
28008;BME280;15333;50.010;20.020;2023-11-18T04:25:00;98899.13;;;3.20;81.59
28008;BME280;15333;50.010;20.020;2023-11-18T04:28:01;98898.72;;;3.29;81.76
28008;BME280;15333;50.010;20.020;2023-11-18T04:31:02;98911.31;;;3.24;81.49
28008;BME280;15333;50.010;20.020;2023-11-18T04:34:03;98914.81;;;3.25;82.35
28008;BME280;15333;50.010;20.020;2023-11-18T04:37:07;98914.59;;;3.29;82.64
28008;BME280;15333;50.010;20.020;2023-11-18T04:40:08;98909.72;;;3.40;82.86
28008;BME280;15333;50.010;20.020;2023-11-18T04:43:15;98912.59;;;3.34;82.65
28008;BME280;15333;50.010;20.020;2023-11-18T04:46:16;98909.03;;;3.35;83.42
28008;BME280;15333;50.010;20.020;2023-11-18T04:49:16;98900.34;;;3.33;82.38
28008;BME280;15333;50.010;20.020;2023-11-18T04:52:17;98905.34;;;3.39;82.02
28008;BME280;15333;50.010;20.020;2023-11-18T04:55:18;98905.47;;;3.36;82.62
28008;BME280;15333;50.010;20.020;2023-11-18T04:58:20;98905.63;;;3.33;82.22
28008;BME280;15333;50.010;20.020;2023-11-18T05:01:21;98911.03;;;3.30;81.99
28008;BME280;15333;50.010;20.020;2023-11-18T05:04:22;98914.47;;;3.32;81.83
28008;BME280;15333;50.010;20.020;2023-11-18T05:07:23;98920.03;;;3.26;81.17
28008;BME280;15333;50.010;20.020;2023-11-18T05:10:23;98914.31;;;3.35;81.19
28008;BME280;15333;50.010;20.020;2023-11-18T05:13:24;98917.66;;;3.20;81.69
28008;BME280;15333;50.010;20.020;2023-11-18T05:16:27;98919.56;;;3.17;81.29
28008;BME280;15333;50.010;20.020;2023-11-18T05:19:28;98915.81;;;3.02;81.05
28008;BME280;15333;50.010;20.020;2023-11-18T05:22:29;98922.06;;;2.99;80.46
28008;BME280;15333;50.010;20.020;2023-11-18T05:25:30;98926.28;;;3.05;79.45
28008;BME280;15333;50.010;20.020;2023-11-18T05:28:33;98924.06;;;2.94;79.29
28008;BME280;15333;50.010;20.020;2023-11-18T05:31:34;98927.84;;;2.89;78.27
28008;BME280;15333;50.010;20.020;2023-11-18T05:34:36;98929.03;;;2.82;77.62
28008;BME280;15333;50.010;20.020;2023-11-18T05:37:37;98935.28;;;2.79;76.62
28008;BME280;15333;50.010;20.020;2023-11-18T05:40:38;98933.44;;;2.81;75.70
28008;BME280;15333;50.010;20.020;2023-11-18T05:43:43;98937.88;;;2.81;74.48
28008;BME280;15333;50.010;20.020;2023-11-18T05:46:52;98942.09;;;2.85;74.14
28008;BME280;15333;50.010;20.020;2023-11-18T05:49:53;98942.25;;;2.82;74.42
28008;BME280;15333;50.010;20.020;2023-11-18T05:52:54;98942.25;;;2.82;74.92
28008;BME280;15333;50.010;20.020;2023-11-18T05:55:55;98944.28;;;2.75;74.59
28008;BME280;15333;50.010;20.020;2023-11-18T05:58:56;98946.59;;;2.83;74.75
28008;BME280;15333;50.010;20.020;2023-11-18T06:01:57;98945.00;;;2.79;74.44
28008;BME280;15333;50.010;20.020;2023-11-18T06:04:58;98954.66;;;2.80;75.87
28008;BME280;15333;50.010;20.020;2023-11-18T06:07:58;98949.56;;;2.75;76.12
28008;BME280;15333;50.010;20.020;2023-11-18T06:10:59;98948.03;;;2.69;75.28
28008;BME280;15333;50.010;20.020;2023-11-18T06:14:05;98956.63;;;2.74;75.72
28008;BME280;15333;50.010;20.020;2023-11-18T06:17:09;98952.88;;;2.80;76.47
28008;BME280;15333;50.010;20.020;2023-11-18T06:20:09;98958.22;;;2.79;77.15
28008;BME280;15333;50.010;20.020;2023-11-18T06:23:11;98956.25;;;2.84;78.15
28008;BME280;15333;50.010;20.020;2023-11-18T06:26:12;98958.91;;;2.84;77.79
28008;BME280;15333;50.010;20.020;2023-11-18T06:29:13;98964.19;;;2.84;78.79
28008;BME280;15333;50.010;20.020;2023-11-18T06:32:14;98965.75;;;2.88;79.09
28008;BME280;15333;50.010;20.020;2023-11-18T06:35:16;98984.06;;;2.92;79.70
28008;BME280;15333;50.010;20.020;2023-11-18T06:38:17;98978.34;;;3.03;79.27
28008;BME280;15333;50.010;20.020;2023-11-18T06:41:21;98983.63;;;3.03;80.75
28008;BME280;15333;50.010;20.020;2023-11-18T06:44:23;98982.28;;;3.13;80.31
28008;BME280;15333;50.010;20.020;2023-11-18T06:47:25;98982.38;;;3.11;82.18
28008;BME280;15333;50.010;20.020;2023-11-18T06:50:25;98986.13;;;3.06;81.60
28008;BME280;15333;50.010;20.020;2023-11-18T06:53:27;98996.69;;;3.06;81.73
28008;BME280;15333;50.010;20.020;2023-11-18T06:56:28;99003.88;;;2.82;80.87
28008;BME280;15333;50.010;20.020;2023-11-18T06:59:29;99004.25;;;2.73;80.20
28008;BME280;15333;50.010;20.020;2023-11-18T07:02:29;99007.56;;;2.56;79.52
28008;BME280;15333;50.010;20.020;2023-11-18T07:05:30;99012.16;;;2.51;78.07
28008;BME280;15333;50.010;20.020;2023-11-18T07:08:31;99021.56;;;2.36;76.74
28008;BME280;15333;50.010;20.020;2023-11-18T07:11:34;99022.75;;;2.28;75.96
28008;BME280;15333;50.010;20.020;2023-11-18T07:14:34;99020.31;;;2.23;75.46
28008;BME280;15333;50.010;20.020;2023-11-18T07:17:35;99028.19;;;2.25;73.61
28008;BME280;15333;50.010;20.020;2023-11-18T07:20:36;99029.78;;;2.29;73.84
28008;BME280;15333;50.010;20.020;2023-11-18T07:23:37;99027.84;;;2.34;72.79
28008;BME280;15333;50.010;20.020;2023-11-18T07:26:38;99025.25;;;2.32;73.08
28008;BME280;15333;50.010;20.020;2023-11-18T07:29:39;99011.50;;;2.46;72.56
28008;BME280;15333;50.010;20.020;2023-11-18T07:32:39;99015.72;;;2.50;72.66
28008;BME280;15333;50.010;20.020;2023-11-18T07:35:41;99015.06;;;2.45;71.98
28008;BME280;15333;50.010;20.020;2023-11-18T07:38:42;99018.50;;;2.47;72.24
28008;BME280;15333;50.010;20.020;2023-11-18T07:41:43;99018.50;;;2.47;72.03
28008;BME280;15333;50.010;20.020;2023-11-18T07:44:44;99021.56;;;2.58;72.45
28008;BME280;15333;50.010;20.020;2023-11-18T07:47:45;99025.03;;;2.60;73.02
28008;BME280;15333;50.010;20.020;2023-11-18T07:50:47;99019.84;;;2.57;73.74
28008;BME280;15333;50.010;20.020;2023-11-18T07:53:49;99016.66;;;2.71;74.21
28008;BME280;15333;50.010;20.020;2023-11-18T07:56:50;99030.78;;;2.92;75.11
28008;BME280;15333;50.010;20.020;2023-11-18T07:59:53;99029.56;;;2.79;80.98
28008;BME280;15333;50.010;20.020;2023-11-18T08:02:53;99021.47;;;2.83;81.24
28008;BME280;15333;50.010;20.020;2023-11-18T08:05:55;99027.47;;;2.87;82.42
28008;BME280;15333;50.010;20.020;2023-11-18T08:08:55;99034.59;;;2.85;84.37
28008;BME280;15333;50.010;20.020;2023-11-18T08:11:58;99036.47;;;2.83;87.09
28008;BME280;15333;50.010;20.020;2023-11-18T08:15:02;99049.72;;;2.81;88.99
28008;BME280;15333;50.010;20.020;2023-11-18T08:18:04;99033.00;;;2.81;88.69
28008;BME280;15333;50.010;20.020;2023-11-18T08:21:04;99036.22;;;2.67;89.42
28008;BME280;15333;50.010;20.020;2023-11-18T08:24:07;99045.81;;;2.69;89.84
28008;BME280;15333;50.010;20.020;2023-11-18T08:27:08;99048.88;;;2.81;89.18
28008;BME280;15333;50.010;20.020;2023-11-18T08:30:11;99045.66;;;2.94;88.70
28008;BME280;15333;50.010;20.020;2023-11-18T08:33:12;99054.19;;;3.01;88.49
28008;BME280;15333;50.010;20.020;2023-11-18T08:36:13;99058.00;;;3.15;88.74
28008;BME280;15333;50.010;20.020;2023-11-18T08:39:14;99049.97;;;3.19;88.44
28008;BME280;15333;50.010;20.020;2023-11-18T08:42:17;99059.16;;;3.30;88.60
28008;BME280;15333;50.010;20.020;2023-11-18T08:45:20;99046.03;;;3.27;88.78
28008;BME280;15333;50.010;20.020;2023-11-18T08:48:28;99057.47;;;3.28;89.32
28008;BME280;15333;50.010;20.020;2023-11-18T08:51:29;99066.44;;;3.25;89.37
28008;BME280;15333;50.010;20.020;2023-11-18T08:54:30;99062.06;;;3.44;88.74
28008;BME280;15333;50.010;20.020;2023-11-18T08:57:38;99065.91;;;3.37;88.25
28008;BME280;15333;50.010;20.020;2023-11-18T09:00:55;99080.19;;;3.33;88.62
28008;BME280;15333;50.010;20.020;2023-11-18T09:04:02;99077.47;;;3.35;87.18
28008;BME280;15333;50.010;20.020;2023-11-18T09:07:03;99078.22;;;3.38;88.14
28008;BME280;15333;50.010;20.020;2023-11-18T09:10:05;99083.63;;;3.35;87.61
28008;BME280;15333;50.010;20.020;2023-11-18T09:13:06;99092.72;;;3.28;88.29
28008;BME280;15333;50.010;20.020;2023-11-18T09:16:07;99109.66;;;3.24;88.06
28008;BME280;15333;50.010;20.020;2023-11-18T09:19:11;99096.63;;;3.20;87.20
28008;BME280;15333;50.010;20.020;2023-11-18T09:22:12;99099.34;;;3.18;87.24
28008;BME280;15333;50.010;20.020;2023-11-18T09:25:15;99096.69;;;3.18;87.12
28008;BME280;15333;50.010;20.020;2023-11-18T09:28:16;99105.22;;;3.25;86.94
28008;BME280;15333;50.010;20.020;2023-11-18T09:31:17;99103.44;;;3.25;87.54
28008;BME280;15333;50.010;20.020;2023-11-18T09:34:18;99100.00;;;3.23;86.85
28008;BME280;15333;50.010;20.020;2023-11-18T09:37:27;99105.53;;;3.17;87.56
28008;BME280;15333;50.010;20.020;2023-11-18T09:40:29;99108.25;;;3.15;86.64
28008;BME280;15333;50.010;20.020;2023-11-18T09:43:33;99105.09;;;3.06;87.64
28008;BME280;15333;50.010;20.020;2023-11-18T09:46:45;99117.78;;;2.98;87.05
28008;BME280;15333;50.010;20.020;2023-11-18T09:49:58;99138.63;;;2.84;87.05
28008;BME280;15333;50.010;20.020;2023-11-18T09:53:07;99134.84;;;2.44;87.76
28008;BME280;15333;50.010;20.020;2023-11-18T09:56:21;99130.81;;;2.34;87.35
28008;BME280;15333;50.010;20.020;2023-11-18T09:59:32;99141.03;;;2.20;87.07
28008;BME280;15333;50.010;20.020;2023-11-18T10:02:39;99143.69;;;2.20;86.43
28008;BME280;15333;50.010;20.020;2023-11-18T10:05:41;99148.88;;;2.21;86.48
28008;BME280;15333;50.010;20.020;2023-11-18T10:08:43;99149.28;;;2.11;85.89
28008;BME280;15333;50.010;20.020;2023-11-18T10:11:49;99149.50;;;2.05;85.30
28008;BME280;15333;50.010;20.020;2023-11-18T10:14:50;99153.41;;;1.93;86.76
28008;BME280;15333;50.010;20.020;2023-11-18T10:17:54;99172.88;;;1.90;87.22
28008;BME280;15333;50.010;20.020;2023-11-18T10:21:07;99170.44;;;1.84;88.03
28008;BME280;15333;50.010;20.020;2023-11-18T10:24:12;99179.97;;;1.88;87.84
28008;BME280;15333;50.010;20.020;2023-11-18T10:27:22;99167.34;;;1.98;88.05
28008;BME280;15333;50.010;20.020;2023-11-18T10:30:23;99162.78;;;2.02;88.32
28008;BME280;15333;50.010;20.020;2023-11-18T10:33:26;99179.41;;;2.05;89.08
28008;BME280;15333;50.010;20.020;2023-11-18T10:36:33;99178.19;;;2.14;89.48
28008;BME280;15333;50.010;20.020;2023-11-18T10:39:37;99177.28;;;2.15;89.44
28008;BME280;15333;50.010;20.020;2023-11-18T10:42:38;99180.88;;;2.37;89.24
28008;BME280;15333;50.010;20.020;2023-11-18T10:45:39;99187.78;;;2.41;90.02
28008;BME280;15333;50.010;20.020;2023-11-18T10:48:42;99181.66;;;2.41;91.24
28008;BME280;15333;50.010;20.020;2023-11-18T10:51:44;99192.25;;;2.39;90.50
28008;BME280;15333;50.010;20.020;2023-11-18T10:54:51;99199.41;;;2.35;90.01
28008;BME280;15333;50.010;20.020;2023-11-18T10:57:57;99204.41;;;2.20;90.45
28008;BME280;15333;50.010;20.020;2023-11-18T11:00:58;99208.63;;;1.99;90.45
28008;BME280;15333;50.010;20.020;2023-11-18T11:04:01;99214.88;;;1.96;90.65
28008;BME280;15333;50.010;20.020;2023-11-18T11:07:05;99221.94;;;1.96;91.12
28008;BME280;15333;50.010;20.020;2023-11-18T11:10:06;99224.16;;;2.08;89.77
28008;BME280;15333;50.010;20.020;2023-11-18T11:13:08;99222.81;;;1.96;89.89
28008;BME280;15333;50.010;20.020;2023-11-18T11:16:12;99231.03;;;1.87;89.91
28008;BME280;15333;50.010;20.020;2023-11-18T11:20:25;99236.69;;;2.02;89.80
28008;BME280;15333;50.010;20.020;2023-11-18T11:23:27;99239.63;;;2.19;90.25
28008;BME280;15333;50.010;20.020;2023-11-18T11:26:53;99249.06;;;2.00;90.10
28008;BME280;15333;50.010;20.020;2023-11-18T11:30:03;99246.31;;;2.04;90.05
28008;BME280;15333;50.010;20.020;2023-11-18T11:33:32;99242.28;;;1.92;90.21
28008;BME280;15333;50.010;20.020;2023-11-18T11:36:47;99240.41;;;1.96;90.29
28008;BME280;15333;50.010;20.020;2023-11-18T11:39:53;99253.88;;;1.88;90.39
28008;BME280;15333;50.010;20.020;2023-11-18T11:42:54;99259.22;;;1.85;90.07
28008;BME280;15333;50.010;20.020;2023-11-18T11:45:56;99265.75;;;1.75;90.08
28008;BME280;15333;50.010;20.020;2023-11-18T11:48:57;99258.66;;;1.77;89.94
28008;BME280;15333;50.010;20.020;2023-11-18T11:52:09;99264.72;;;1.79;89.31
28008;BME280;15333;50.010;20.020;2023-11-18T11:55:25;99269.91;;;1.82;89.48
28008;BME280;15333;50.010;20.020;2023-11-18T11:58:34;99281.38;;;1.81;90.10
28008;BME280;15333;50.010;20.020;2023-11-18T12:01:38;99291.00;;;1.82;90.06
28008;BME280;15333;50.010;20.020;2023-11-18T12:04:39;99287.56;;;1.80;89.40
28008;BME280;15333;50.010;20.020;2023-11-18T12:07:42;99284.63;;;1.89;88.95
28008;BME280;15333;50.010;20.020;2023-11-18T12:10:51;99302.75;;;1.72;89.10
28008;BME280;15333;50.010;20.020;2023-11-18T12:14:04;99291.13;;;1.78;89.59
28008;BME280;15333;50.010;20.020;2023-11-18T12:17:13;99293.84;;;1.76;89.37
28008;BME280;15333;50.010;20.020;2023-11-18T12:20:41;99298.78;;;1.87;89.43
28008;BME280;15333;50.010;20.020;2023-11-18T12:24:16;99299.13;;;1.76;89.82
28008;BME280;15333;50.010;20.020;2023-11-18T12:27:45;99300.75;;;1.80;88.96
28008;BME280;15333;50.010;20.020;2023-11-18T12:30:55;99306.94;;;1.79;88.68
28008;BME280;15333;50.010;20.020;2023-11-18T12:34:05;99304.28;;;1.79;89.28
28008;BME280;15333;50.010;20.020;2023-11-18T12:37:30;99312.38;;;1.75;88.99
28008;BME280;15333;50.010;20.020;2023-11-18T12:40:53;99329.16;;;1.72;88.92
28008;BME280;15333;50.010;20.020;2023-11-18T12:44:31;99326.53;;;1.71;89.07
28008;BME280;15333;50.010;20.020;2023-11-18T12:47:38;99331.97;;;1.66;89.01
28008;BME280;15333;50.010;20.020;2023-11-18T12:50:41;99337.38;;;1.63;89.12
28008;BME280;15333;50.010;20.020;2023-11-18T12:53:48;99330.19;;;1.67;89.10
28008;BME280;15333;50.010;20.020;2023-11-18T12:56:51;99339.81;;;1.69;89.10
28008;BME280;15333;50.010;20.020;2023-11-18T12:59:54;99340.03;;;1.62;89.05
28008;BME280;15333;50.010;20.020;2023-11-18T13:02:55;99339.25;;;1.58;89.38
28008;BME280;15333;50.010;20.020;2023-11-18T13:05:59;99345.44;;;1.57;89.13
28008;BME280;15333;50.010;20.020;2023-11-18T13:08:59;99360.41;;;1.56;88.96
28008;BME280;15333;50.010;20.020;2023-11-18T13:12:06;99365.88;;;1.50;89.04
28008;BME280;15333;50.010;20.020;2023-11-18T13:15:09;99367.09;;;1.39;89.14
28008;BME280;15333;50.010;20.020;2023-11-18T13:18:10;99372.31;;;1.42;88.92
28008;BME280;15333;50.010;20.020;2023-11-18T13:21:16;99374.88;;;1.43;89.11
28008;BME280;15333;50.010;20.020;2023-11-18T13:24:18;99385.31;;;1.48;89.13
28008;BME280;15333;50.010;20.020;2023-11-18T13:27:19;99386.88;;;1.53;89.01
28008;BME280;15333;50.010;20.020;2023-11-18T13:30:20;99381.59;;;1.53;88.70
28008;BME280;15333;50.010;20.020;2023-11-18T13:33:21;99380.56;;;1.59;89.43
28008;BME280;15333;50.010;20.020;2023-11-18T13:36:24;99398.31;;;1.54;89.35
28008;BME280;15333;50.010;20.020;2023-11-18T13:39:25;99395.69;;;1.52;89.24
28008;BME280;15333;50.010;20.020;2023-11-18T13:42:29;99412.41;;;1.53;89.28
28008;BME280;15333;50.010;20.020;2023-11-18T13:45:29;99410.59;;;1.55;88.83
28008;BME280;15333;50.010;20.020;2023-11-18T13:48:31;99407.03;;;1.56;89.51
28008;BME280;15333;50.010;20.020;2023-11-18T13:51:34;99414.22;;;1.51;89.19
28008;BME280;15333;50.010;20.020;2023-11-18T13:54:37;99427.16;;;1.58;89.25
28008;BME280;15333;50.010;20.020;2023-11-18T13:57:39;99423.03;;;1.50;89.45
28008;BME280;15333;50.010;20.020;2023-11-18T14:00:40;99414.13;;;1.54;89.25
28008;BME280;15333;50.010;20.020;2023-11-18T14:03:42;99436.16;;;1.51;89.57
28008;BME280;15333;50.010;20.020;2023-11-18T14:06:44;99433.56;;;1.50;89.07
28008;BME280;15333;50.010;20.020;2023-11-18T14:09:46;99439.47;;;1.60;88.95
28008;BME280;15333;50.010;20.020;2023-11-18T14:13:04;99450.16;;;1.55;88.87
28008;BME280;15333;50.010;20.020;2023-11-18T14:16:06;99451.75;;;1.61;89.52
28008;BME280;15333;50.010;20.020;2023-11-18T14:19:10;99442.06;;;1.61;89.47
28008;BME280;15333;50.010;20.020;2023-11-18T14:22:11;99455.13;;;1.64;88.93
28008;BME280;15333;50.010;20.020;2023-11-18T14:25:13;99472.88;;;1.59;89.02
28008;BME280;15333;50.010;20.020;2023-11-18T14:28:14;99464.09;;;1.58;89.10
28008;BME280;15333;50.010;20.020;2023-11-18T14:31:15;99472.00;;;1.58;89.33
28008;BME280;15333;50.010;20.020;2023-11-18T14:34:16;99465.06;;;1.56;89.13
28008;BME280;15333;50.010;20.020;2023-11-18T14:37:18;99465.16;;;1.53;88.59
28008;BME280;15333;50.010;20.020;2023-11-18T14:40:19;99477.44;;;1.54;88.81
28008;BME280;15333;50.010;20.020;2023-11-18T14:43:24;99470.41;;;1.53;88.96
28008;BME280;15333;50.010;20.020;2023-11-18T14:46:25;99469.56;;;1.52;89.24
28008;BME280;15333;50.010;20.020;2023-11-18T14:49:28;99471.25;;;1.55;89.27
28008;BME280;15333;50.010;20.020;2023-11-18T14:52:28;99477.31;;;1.57;88.70
28008;BME280;15333;50.010;20.020;2023-11-18T14:55:30;99485.44;;;1.49;89.50
28008;BME280;15333;50.010;20.020;2023-11-18T14:58:34;99484.44;;;1.55;89.09
28008;BME280;15333;50.010;20.020;2023-11-18T15:01:36;99481.22;;;1.44;89.21
28008;BME280;15333;50.010;20.020;2023-11-18T15:04:37;99479.69;;;1.35;88.64
28008;BME280;15333;50.010;20.020;2023-11-18T15:07:38;99500.94;;;1.31;89.37
28008;BME280;15333;50.010;20.020;2023-11-18T15:10:40;99484.19;;;1.32;89.32
28008;BME280;15333;50.010;20.020;2023-11-18T15:13:42;99495.69;;;1.29;89.39
28008;BME280;15333;50.010;20.020;2023-11-18T15:16:43;99499.13;;;1.33;89.27
28008;BME280;15333;50.010;20.020;2023-11-18T15:19:45;99498.16;;;1.35;89.03
28008;BME280;15333;50.010;20.020;2023-11-18T15:22:46;99508.69;;;1.35;89.07
28008;BME280;15333;50.010;20.020;2023-11-18T15:25:47;99501.63;;;1.37;89.58
28008;BME280;15333;50.010;20.020;2023-11-18T15:28:50;99514.78;;;1.39;89.05
28008;BME280;15333;50.010;20.020;2023-11-18T15:31:53;99513.03;;;1.38;88.94
28008;BME280;15333;50.010;20.020;2023-11-18T15:34:55;99509.44;;;1.42;89.16
28008;BME280;15333;50.010;20.020;2023-11-18T15:37:58;99523.69;;;1.35;89.19
28008;BME280;15333;50.010;20.020;2023-11-18T15:40:59;99509.75;;;1.30;89.33
28008;BME280;15333;50.010;20.020;2023-11-18T15:44:00;99515.13;;;1.27;88.78
28008;BME280;15333;50.010;20.020;2023-11-18T15:47:01;99524.75;;;1.28;88.94
28008;BME280;15333;50.010;20.020;2023-11-18T15:50:02;99520.22;;;1.33;88.85
28008;BME280;15333;50.010;20.020;2023-11-18T15:53:04;99527.38;;;1.28;88.88
28008;BME280;15333;50.010;20.020;2023-11-18T15:56:08;99537.84;;;1.31;88.93
28008;BME280;15333;50.010;20.020;2023-11-18T15:59:11;99530.59;;;1.39;89.04
28008;BME280;15333;50.010;20.020;2023-11-18T16:02:12;99536.09;;;1.30;88.74
28008;BME280;15333;50.010;20.020;2023-11-18T16:05:15;99548.56;;;1.25;89.17
28008;BME280;15333;50.010;20.020;2023-11-18T16:08:18;99543.34;;;1.22;88.46
28008;BME280;15333;50.010;20.020;2023-11-18T16:11:18;99536.44;;;1.17;88.57
28008;BME280;15333;50.010;20.020;2023-11-18T16:14:19;99543.22;;;1.28;89.34